Sagehen Creek Weather observations

Data are for observation ending at time listed.
 Day   Time    Ave.   Ave.  Ave.  Vector   Max.   Stn.    Total    Solar   Ave.  
  of    of     Air    Rel.  Wind   Wind    Wind   Baro.  Precip.   Rad.    Soil  
Year   Day     Temp.  Hum.  Speed  Dir.    Gust   Pres.                    Temp. 
2015   (PST)    F      %     mph   deg.    mph     mb.     in.     W/m2     F   
------------------------------------------------------------------------------
 212   22:10   50.3    72    0.3   254      1.4   840.2   17.71       0    999.0
 212   22:20   50.3    72    0.5   246      1.0   840.3   17.71       0    999.0
 212   22:30   50.3    73    0.1   257      0.6   840.3   17.71       0    999.0
 212   22:40   50.3    74    0.7   270      1.4   839.8   17.71       0    999.0
 212   22:50   50.3    74    0.4   247      1.2   840.0   17.71       0    999.0
 212   23:00   50.0    73    0.6   255      1.2   840.2   17.71       0    999.0
 212   23:10   49.7    73    0.6   261      1.4   839.9   17.71       0    999.0
 212   23:20   49.3    73    0.6   260      1.3   839.9   17.71       0    999.0
 212   23:30   48.8    74    0.5   260      1.2   839.9   17.71       0    999.0
 212   23:40   48.9    74    0.2   259      1.0   840.2   17.71       0    999.0
 212   23:50   49.1    74    0.6   262      0.8   839.9   17.71       0    999.0
 213    0:00   49.5    73    0.3   262      0.9   839.6   17.71       0    999.0
 213    0:10   49.7    73    0.7   263      1.2   839.9   17.71       0    999.0
 213    0:20   49.6    74    0.1   258      0.5   839.9   17.71       0    999.0
 213    0:30   49.4    74    0.2   263      0.7   839.9   17.71       0    999.0
 213    0:40   49.1    74    0.4   266      1.0   839.6   17.71       0    999.0
 213    0:50   48.5    76    0.3   263      0.8   839.5   17.71       0    999.0
 213    1:00   47.8    77    0.2   260      0.8   839.4   17.71       0    999.0
 213    1:10   47.6    78    0.8   278      1.1   839.2   17.71       0    999.0
 213    1:20   47.4    78    0.5   261      1.1   839.4   17.71       0    999.0
 213    1:30   47.0    80    0.1   259      0.8   839.6   17.71       0    999.0
 213    1:40   46.7    80    0.4   260      0.9   839.3   17.71       0    999.0
 213    1:50   46.5    80    0.1   258      0.4   839.4   17.71       0    999.0
 213    2:00   46.5    80    0.5   258      1.3   839.5   17.71       0    999.0
 213    2:10   46.8    80    0.6   251      1.4   839.5   17.71       0    999.0
 213    2:20   47.2    80    0.2   267      0.7   839.4   17.71       0    999.0
 213    2:30   47.5    78    0.8   275      1.1   839.2   17.71       0    999.0
 213    2:40   47.9    78    0.6   278      1.1   839.4   17.71       0    999.0
 213    2:50   48.0    78    0.0     0      0.0   839.2   17.71       0    999.0
 213    3:00   48.2    76    0.6   259      1.1   839.0   17.71       0    999.0
 213    3:10   48.2    78    0.0   256      0.5   839.4   17.71       0    999.0
 213    3:20   48.3    76    0.1   264      0.9   839.1   17.71       0    999.0
 213    3:30   48.3    75    0.5   263      1.2   838.8   17.71       0    999.0
 213    3:40   48.0    76    0.3   255      0.8   839.2   17.71       0    999.0
 213    3:50   47.7    78    0.0   260      0.5   839.1   17.71       0    999.0
 213    4:00   47.4    79    0.3   262      0.9   839.0   17.71       0    999.0
 213    4:10   46.9    79    0.1   259      1.0   839.0   17.71       0    999.0
 213    4:20   46.6    81    0.4   271      1.1   839.2   17.71       0    999.0
 213    4:30   46.5    82    0.2   267      0.7   839.4   17.71       0    999.0
 213    4:40   46.8    80    0.4   292      1.1   839.0   17.71       0    999.0
 213    4:50   47.0    80    0.0   265      0.6   839.2   17.71       0    999.0
 213    5:00   47.0    80    0.0     0      0.0   839.5   17.71       1    999.0
 213    5:10   46.9    81    0.2   261      0.6   839.1   17.71       2    999.0
 213    5:20   46.9    82    0.2   254      1.0   839.3   17.71       5    999.0
 213    5:30   47.0    81    0.6   266      1.2   839.5   17.71      22    999.0
 213    5:40   47.3    82    0.1   268      0.8   839.4   17.71      42    999.0
 213    5:50   47.9    80    0.6   273      0.8   839.6   17.71      53    999.0
 213    6:00   48.6    80    0.1   265      0.7   839.7   17.71      54    999.0
 213    6:10   49.0    80    0.1   263      0.7   839.7   17.71      80    999.0
 213    6:20   49.8    81    0.0     0      0.0   839.6   17.71      66    999.0
 213    6:30   50.7    79    0.0   267      0.5   839.6   17.71      72    999.0
 213    6:40   51.8    80    0.2   264      0.6   839.9   17.71     118    999.0
 213    6:50   53.1    78    0.0     0      0.0   839.8   17.71     136    999.0
 213    7:00   54.7    76    0.0   272      0.6   839.6   17.71     148    999.0
 213    7:10   56.9    73    0.7   129      1.7   839.8   17.72     329    999.0
 213    7:20   60.4    64    0.2    85      1.2   839.7   17.72     340    999.0
 213    7:30   64.1    58    0.1     2      0.8   839.6   17.72     447    999.0
 213    7:40   65.6    58    0.5    86      1.9   839.8   17.71     185    999.0
 213    7:50   64.3    55    1.0   105      2.4   839.9   17.71     183    999.0
 213    8:00   64.5    54    1.6    89      5.3   840.0   17.71     227    999.0
 213    8:10   64.2    49    1.8    96      4.0   840.1   17.71     184    999.0
 213    8:20   64.6    49    1.0   106      2.6   840.1   17.71     236    999.0
 213    8:30   65.7    50    1.3   100      3.5   840.0   17.71     376    999.0
 213    8:40   66.8    46    1.3   104      2.3   839.7   17.70     163    999.0
 213    8:50   65.9    52    1.2   100      2.4   839.7   17.70     210    999.0
 213    9:00  999.0   999  999.0   999    999.0   999.0   999.00     999    999.0
 213    9:10   66.1    50    0.8    88      2.3     0.0   17.70     239    999.0
 213    9:20   67.9    52    1.7    98      4.2   433.8   17.70     246    999.0
 213    9:30   67.1    51    2.4    94      4.2   839.7   17.70     173    999.0
 213    9:40   67.0    54    1.9   106      3.4   839.8   17.71     506    999.0
 213    9:50   69.4    48    2.9   100      5.8   839.9   17.71     780    999.0
 213   10:00   73.4    46    0.3   121      1.6   839.9   17.71     778    999.0
 213   10:10   76.4    38    1.2    41      2.8   839.7   17.70     847    999.0
 213   10:20   78.3    34    1.0   186      2.6   839.6   17.70     888    999.0
 213   10:30   79.3    32    1.4   243      3.0   839.6   17.70     902    999.0
 213   10:40   80.3    25    1.7   224      5.2   839.6   17.70     914    999.0
 213   10:50   80.7    25    2.0   170      4.2   839.5   17.70     912    999.0
 213   11:00   81.0    24    2.7   104      6.1   839.5   17.70     908    999.0
 213   11:10   80.9    24    3.6    96      8.0   839.4   17.69     904    999.0
 213   11:20   81.3    23    2.1   119      5.4   839.3   17.69     880    999.0
 213   11:30   82.1    20    3.0   108      7.6   839.2   17.69     911    999.0
 213   11:40   80.7    21    3.0    93      7.9   839.0   17.69     509    999.0
 213   11:50   81.4    21    1.7   168      5.5   838.9   17.69     936    999.0
 213   12:00   83.7    21    1.5   264      4.0   838.8   17.69     973    999.0
 213   12:10   83.2    20    2.2    88      7.3   838.9   17.69     863    999.0
 213   12:20   82.5    20    1.9   126      5.3   838.7   17.69    1001    999.0
 213   12:30   82.6    20    2.4   168      4.6   838.6   17.69     948    999.0
 213   12:40   83.2    20    1.9   112      4.7   838.7   17.69     554    999.0
 213   12:50   82.7    21    2.1   112      4.2   838.6   17.68     941    999.0
 213   13:00   84.4    20    2.8   108      6.9   838.4   17.68    1026    999.0
 213   13:10   83.1    20    2.8   106      6.6   838.5   17.69     563    999.0
 213   13:20   81.7    20    2.7    94      6.5   838.5   17.69     285    999.0
 213   13:30   81.4    21    1.4    88      4.0   838.5   17.69     358    999.0
 213   13:40   81.7    22    1.3    98      4.0   838.4   17.69     292    999.0
 213   13:50   81.3    25    0.7   179      2.1   838.2   17.70     290    999.0
 213   14:00   81.4    26    1.6   121      3.4   838.1   17.70     347    999.0
 213   14:10   81.4    24    1.3   164      3.0   837.8   17.70     309    999.0
 213   14:20   80.9    26    0.9   179      3.1   837.9   17.70     258    999.0
 213   14:30   80.8    28    0.7   232      2.3   838.0   17.70     259    999.0
 213   14:40   80.4    27    0.7   236      2.2   837.8   17.70     247    999.0
 213   14:50   80.1    28    0.7   272      2.4   837.7   17.70     227    999.0
 213   15:00   79.9    28    0.9   167      4.5   837.7   17.70     209    999.0
 213   15:10   79.6    32    1.2   214      4.4   837.8   17.70     215    999.0
 213   15:20   79.2    34    1.4   226      3.6   837.7   17.70     246    999.0
 213   15:30   79.4    35    2.0   278      4.0   837.6   17.70     345    999.0
 213   15:40   79.8    37    2.5   231      6.0   837.6   17.69     406    999.0
 213   15:50   79.9    38    2.0   235      5.6   837.6   17.69     420    999.0
 213   16:00   79.8    35    2.1   254      5.3   837.6   17.70     342    999.0
 213   16:10   79.3    38    1.7   256      3.4   837.6   17.70     272    999.0
 213   16:20   78.9    37    2.3   235      5.1   837.5   17.70     203    999.0
 213   16:30   78.1    40    1.4   237      3.5   837.5   17.70     166    999.0
 213   16:40   77.1    41    1.8   225      5.0   837.4   17.70     138    999.0
 213   16:50   76.5    43    1.1   238      2.8   837.6   17.70     125    999.0
 213   17:00   76.2    44    1.2   232      4.4   837.8   17.70     112    999.0
 213   17:10   75.9    42    1.6   247      5.9   837.6   17.70     117    999.0
 213   17:20   76.0    41    1.4   245      4.1   837.7   17.70     107    999.0
 213   17:30   75.6    42    1.4   262      3.4   837.8   17.70      99    999.0
 213   17:40   75.4    42    1.0   235      3.4   837.3   17.70      87    999.0
 213   17:50   75.0    43    1.4   264      3.3   837.4   17.70      73    999.0
 213   18:00   74.4    43    0.9   253      3.2   837.4   17.70      61    999.0
 213   18:10   74.1    44    0.6   264      2.9   837.6   17.70      54    999.0
 213   18:20   73.7    46    0.1   179      1.1   837.7   17.70      45    999.0
 213   18:30   72.6    48    0.5   202      2.4   837.9   17.70      38    999.0
 213   18:40   71.9    49    0.3   180      2.0   837.5   17.70      35    999.0
 213   18:50   71.2    51    0.0     0      0.0   837.7   17.70      29    999.0
 213   19:00   70.2    54    0.0   239      0.7   837.9   17.70      18    999.0
 213   19:10   69.1    59    0.3   203      0.9   837.8   17.70      10    999.0
 213   19:20   67.9    61    0.0   256      0.4   837.9   17.70       6    999.0
 213   19:30   66.6    65    0.1   168      1.0   837.9   17.70       2    999.0
 213   19:40   65.4    67    0.0     0      0.0   837.6   17.71       0    999.0
 213   19:50   64.3    69    0.0     0      0.0   837.7   17.71       0    999.0
 213   20:00   63.3    70    0.0     0      0.0   837.8   17.71       0    999.0
 213   20:10   62.7    70    0.3   263      0.9   838.3   17.71       0    999.0
 213   20:20   62.4    71    0.2   187      1.1   838.3   17.71       0    999.0
 213   20:30   61.8    72    0.0     0      0.0   838.3   17.71       0    999.0
 213   20:40   61.6    72    0.0   209      0.4   838.6   17.71       0    999.0
 213   20:50   61.2    72    0.0   272      0.4   838.4   17.71       0    999.0
 213   21:00   61.2    72    0.3   258      1.1   838.2   17.71       0    999.0
 213   21:10   60.7    72    0.0     0      0.0   838.5   17.71       0    999.0
 213   21:20   60.4    72    0.4   251      1.4   838.5   17.71       0    999.0
 213   21:30   59.8    74    0.1   196      0.8   838.5   17.71       0    999.0
 213   21:40   59.2    75    0.2   254      0.8   838.3   17.71       0    999.0
 213   21:50   59.0    74    0.3   195      1.1   838.4   17.71       0    999.0
 213   22:00   58.6    75    0.2   236      1.4   838.4   17.71       0    999.0

Return to Sagehen Creek graphs page.


Western Regional Climate Center,wrcc@dri.edu